Terminal Aerodrome Forecast
Issued by NWS

Current Version | Previous Version | Text Only | Print | Product List | Glossary On
Versions: 1 2 3 4 5 6 7 8 9 10 11 12 13 14 15 16 17
000
FTUS44 KEPZ 251128
TAFTCS
TAF
KTCS 251128Z 2512/2612 18011KT P6SM SCT050 BKN100
     FM251900 22010G20KT P6SM VCTS SCT050CB BKN100
     FM260000 35010G20KT P6SM VCTS SCT050CB BKN100
      TEMPO 2600/2604 VRB25G35KT 1SM TSRA BKN030CB=

USA.gov is the U.S. government's official web portal to all federal, state and local government web resources and services.